sensor_id;sensor_type;location;lat;lon;timestamp;pressure;altitude;pressure_sealevel;temperature;humidity
61128;BME280;47013;42.664;23.242;2024-01-30T00:01:12;95842.31;;;-0.23;77.13
61128;BME280;47013;42.664;23.242;2024-01-30T00:03:37;95854.47;;;-0.36;76.97
61128;BME280;47013;42.664;23.242;2024-01-30T00:06:06;95848.34;;;-0.55;77.18
61128;BME280;47013;42.664;23.242;2024-01-30T00:08:31;95850.22;;;-0.55;77.56
61128;BME280;47013;42.664;23.242;2024-01-30T00:10:56;95853.84;;;-0.65;77.53
61128;BME280;47013;42.664;23.242;2024-01-30T00:13:22;95855.34;;;-0.59;77.82
61128;BME280;47013;42.664;23.242;2024-01-30T00:15:48;95856.28;;;-0.50;77.47
61128;BME280;47013;42.664;23.242;2024-01-30T00:18:13;95858.88;;;-0.45;77.74
61128;BME280;47013;42.664;23.242;2024-01-30T00:20:39;95861.75;;;-0.41;77.33
61128;BME280;47013;42.664;23.242;2024-01-30T00:23:04;95860.66;;;-0.40;77.07
61128;BME280;47013;42.664;23.242;2024-01-30T00:25:30;95859.16;;;-0.46;76.13
61128;BME280;47013;42.664;23.242;2024-01-30T00:27:56;95859.75;;;-0.49;76.55
61128;BME280;47013;42.664;23.242;2024-01-30T00:30:21;95858.88;;;-0.45;76.30
61128;BME280;47013;42.664;23.242;2024-01-30T00:32:46;95850.66;;;-0.48;76.24
61128;BME280;47013;42.664;23.242;2024-01-30T00:35:12;95852.66;;;-0.40;77.27
61128;BME280;47013;42.664;23.242;2024-01-30T00:37:37;95856.78;;;-0.29;77.22
61128;BME280;47013;42.664;23.242;2024-01-30T00:40:03;95852.66;;;-0.21;76.41
61128;BME280;47013;42.664;23.242;2024-01-30T00:42:29;95854.09;;;-0.29;75.70
61128;BME280;47013;42.664;23.242;2024-01-30T00:44:54;95852.22;;;-0.28;76.71
61128;BME280;47013;42.664;23.242;2024-01-30T00:47:20;95856.72;;;-0.24;76.36
61128;BME280;47013;42.664;23.242;2024-01-30T00:49:45;95853.75;;;-0.22;76.17
61128;BME280;47013;42.664;23.242;2024-01-30T00:52:11;95852.09;;;-0.18;76.63
61128;BME280;47013;42.664;23.242;2024-01-30T00:54:36;95850.16;;;-0.13;76.21
61128;BME280;47013;42.664;23.242;2024-01-30T00:57:02;95854.75;;;0.01;76.27
61128;BME280;47013;42.664;23.242;2024-01-30T00:59:27;95846.50;;;-0.03;75.77
61128;BME280;47013;42.664;23.242;2024-01-30T01:01:53;95848.09;;;-0.02;75.55
61128;BME280;47013;42.664;23.242;2024-01-30T01:04:18;95856.63;;;0.00;75.48
61128;BME280;47013;42.664;23.242;2024-01-30T01:06:44;95848.31;;;0.02;76.32
61128;BME280;47013;42.664;23.242;2024-01-30T01:09:11;95850.91;;;0.07;75.83
61128;BME280;47013;42.664;23.242;2024-01-30T01:11:37;95834.19;;;0.01;75.92
61128;BME280;47013;42.664;23.242;2024-01-30T01:14:03;95839.25;;;0.03;76.07
61128;BME280;47013;42.664;23.242;2024-01-30T01:16:29;95846.25;;;0.12;75.60
61128;BME280;47013;42.664;23.242;2024-01-30T01:18:54;95847.56;;;0.15;75.27
61128;BME280;47013;42.664;23.242;2024-01-30T01:21:20;95844.38;;;0.13;75.69
61128;BME280;47013;42.664;23.242;2024-01-30T01:23:45;95842.59;;;0.08;75.65
61128;BME280;47013;42.664;23.242;2024-01-30T01:26:11;95838.94;;;0.04;75.95
61128;BME280;47013;42.664;23.242;2024-01-30T01:28:36;95838.94;;;0.04;75.05
61128;BME280;47013;42.664;23.242;2024-01-30T01:31:02;95843.38;;;0.09;75.42
61128;BME280;47013;42.664;23.242;2024-01-30T01:33:33;95847.19;;;-0.11;75.87
61128;BME280;47013;42.664;23.242;2024-01-30T01:35:59;95847.97;;;-0.11;75.99
61128;BME280;47013;42.664;23.242;2024-01-30T01:38:24;95845.59;;;-0.12;76.82
61128;BME280;47013;42.664;23.242;2024-01-30T01:40:50;95854.59;;;-0.08;76.47
61128;BME280;47013;42.664;23.242;2024-01-30T01:43:16;95848.63;;;-0.19;76.85
61128;BME280;47013;42.664;23.242;2024-01-30T01:45:41;95845.38;;;-0.16;75.97
61128;BME280;47013;42.664;23.242;2024-01-30T01:48:07;95844.38;;;-0.20;76.75
61128;BME280;47013;42.664;23.242;2024-01-30T01:50:33;95836.69;;;-0.21;77.69
61128;BME280;47013;42.664;23.242;2024-01-30T01:52:59;95845.16;;;-0.19;76.33
61128;BME280;47013;42.664;23.242;2024-01-30T01:55:24;95842.94;;;-0.31;76.66
61128;BME280;47013;42.664;23.242;2024-01-30T01:57:53;95843.88;;;-0.22;77.79
61128;BME280;47013;42.664;23.242;2024-01-30T02:00:19;95853.97;;;-0.19;76.70
61128;BME280;47013;42.664;23.242;2024-01-30T02:02:45;95854.09;;;-0.29;76.50
61128;BME280;47013;42.664;23.242;2024-01-30T02:05:11;95853.31;;;-0.48;76.57
61128;BME280;47013;42.664;23.242;2024-01-30T02:07:37;95846.09;;;-0.67;77.06
61128;BME280;47013;42.664;23.242;2024-01-30T02:10:03;95850.44;;;-0.71;77.52
61128;BME280;47013;42.664;23.242;2024-01-30T02:12:29;95857.09;;;-0.92;78.26
61128;BME280;47013;42.664;23.242;2024-01-30T02:14:54;95865.84;;;-1.10;79.01
61128;BME280;47013;42.664;23.242;2024-01-30T02:17:20;95862.59;;;-1.07;79.43
61128;BME280;47013;42.664;23.242;2024-01-30T02:19:46;95860.56;;;-1.15;79.46
61128;BME280;47013;42.664;23.242;2024-01-30T02:22:12;95851.56;;;-1.20;79.43
61128;BME280;47013;42.664;23.242;2024-01-30T02:24:38;95846.75;;;-1.41;79.92
61128;BME280;47013;42.664;23.242;2024-01-30T02:27:04;95837.50;;;-1.49;80.30
61128;BME280;47013;42.664;23.242;2024-01-30T02:29:29;95848.84;;;-1.38;80.37
61128;BME280;47013;42.664;23.242;2024-01-30T02:31:54;95837.44;;;-1.44;79.76
61128;BME280;47013;42.664;23.242;2024-01-30T02:34:20;95838.72;;;-1.36;80.28
61128;BME280;47013;42.664;23.242;2024-01-30T02:36:46;95838.03;;;-1.47;80.38
61128;BME280;47013;42.664;23.242;2024-01-30T02:39:11;95840.47;;;-1.51;80.11
61128;BME280;47013;42.664;23.242;2024-01-30T02:41:37;95851.53;;;-1.43;81.12
61128;BME280;47013;42.664;23.242;2024-01-30T02:44:03;95842.56;;;-1.48;80.69
61128;BME280;47013;42.664;23.242;2024-01-30T02:46:29;95848.16;;;-1.49;80.38
61128;BME280;47013;42.664;23.242;2024-01-30T02:48:55;95848.09;;;-1.44;79.62
61128;BME280;47013;42.664;23.242;2024-01-30T02:51:20;95847.53;;;-1.41;80.34
61128;BME280;47013;42.664;23.242;2024-01-30T02:53:46;95846.75;;;-1.41;79.89
61128;BME280;47013;42.664;23.242;2024-01-30T02:56:11;95845.41;;;-1.39;79.91
61128;BME280;47013;42.664;23.242;2024-01-30T02:58:39;95850.75;;;-1.44;80.13
61128;BME280;47013;42.664;23.242;2024-01-30T03:01:05;95845.72;;;-1.45;79.99
61128;BME280;47013;42.664;23.242;2024-01-30T03:03:30;95854.56;;;-1.50;79.96
61128;BME280;47013;42.664;23.242;2024-01-30T03:05:56;95836.25;;;-1.57;80.29
61128;BME280;47013;42.664;23.242;2024-01-30T03:08:21;95837.91;;;-1.61;80.18
61128;BME280;47013;42.664;23.242;2024-01-30T03:10:46;95833.09;;;-1.59;80.28
61128;BME280;47013;42.664;23.242;2024-01-30T03:13:12;95833.16;;;-1.64;80.17
61128;BME280;47013;42.664;23.242;2024-01-30T03:15:37;95834.63;;;-1.53;79.91
61128;BME280;47013;42.664;23.242;2024-01-30T03:18:03;95839.38;;;-1.50;79.73
61128;BME280;47013;42.664;23.242;2024-01-30T03:20:31;95830.84;;;-1.46;80.15
61128;BME280;47013;42.664;23.242;2024-01-30T03:22:57;95831.00;;;-1.38;78.95
61128;BME280;47013;42.664;23.242;2024-01-30T03:25:22;95830.44;;;-1.35;79.33
61128;BME280;47013;42.664;23.242;2024-01-30T03:27:47;95837.91;;;-1.37;79.87
61128;BME280;47013;42.664;23.242;2024-01-30T03:30:13;95836.06;;;-1.36;79.49
61128;BME280;47013;42.664;23.242;2024-01-30T03:32:38;95831.91;;;-1.48;78.63
61128;BME280;47013;42.664;23.242;2024-01-30T03:35:04;95833.16;;;-1.40;79.77
61128;BME280;47013;42.664;23.242;2024-01-30T03:37:29;95826.81;;;-1.44;79.42
61128;BME280;47013;42.664;23.242;2024-01-30T03:39:55;95832.66;;;-1.42;79.01
61128;BME280;47013;42.664;23.242;2024-01-30T03:42:20;95820.47;;;-1.48;78.78
61128;BME280;47013;42.664;23.242;2024-01-30T03:44:46;95822.56;;;-1.45;78.44
61128;BME280;47013;42.664;23.242;2024-01-30T03:47:11;95822.34;;;-1.49;77.82
61128;BME280;47013;42.664;23.242;2024-01-30T03:49:37;95822.06;;;-1.47;77.98
61128;BME280;47013;42.664;23.242;2024-01-30T03:52:02;95813.44;;;-1.63;77.21
61128;BME280;47013;42.664;23.242;2024-01-30T03:54:27;95821.66;;;-1.59;77.31
61128;BME280;47013;42.664;23.242;2024-01-30T03:56:53;95823.25;;;-1.58;78.23
61128;BME280;47013;42.664;23.242;2024-01-30T03:59:18;95819.28;;;-1.61;77.02
61128;BME280;47013;42.664;23.242;2024-01-30T04:01:51;95828.63;;;-1.63;76.89
61128;BME280;47013;42.664;23.242;2024-01-30T04:04:18;95819.09;;;-1.69;77.31
61128;BME280;47013;42.664;23.242;2024-01-30T04:06:44;95812.16;;;-1.65;78.16
61128;BME280;47013;42.664;23.242;2024-01-30T04:09:09;95825.75;;;-1.67;77.38
61128;BME280;47013;42.664;23.242;2024-01-30T04:11:35;95821.75;;;-1.69;77.41
61128;BME280;47013;42.664;23.242;2024-01-30T04:14:00;95817.41;;;-1.60;76.95
61128;BME280;47013;42.664;23.242;2024-01-30T04:16:25;95814.34;;;-1.72;77.12
61128;BME280;47013;42.664;23.242;2024-01-30T04:18:51;95822.00;;;-1.66;77.32
61128;BME280;47013;42.664;23.242;2024-01-30T04:21:16;95816.63;;;-1.61;76.85
61128;BME280;47013;42.664;23.242;2024-01-30T04:23:42;95825.44;;;-1.65;77.48
61128;BME280;47013;42.664;23.242;2024-01-30T04:26:07;95821.09;;;-1.80;76.54
61128;BME280;47013;42.664;23.242;2024-01-30T04:28:32;95811.13;;;-1.69;77.21
61128;BME280;47013;42.664;23.242;2024-01-30T04:30:58;95826.56;;;-1.71;77.68
61128;BME280;47013;42.664;23.242;2024-01-30T04:33:23;95822.56;;;-1.69;77.60
61128;BME280;47013;42.664;23.242;2024-01-30T04:35:49;95823.59;;;-1.65;77.31
61128;BME280;47013;42.664;23.242;2024-01-30T04:38:14;95836.00;;;-1.55;76.64
61128;BME280;47013;42.664;23.242;2024-01-30T04:40:40;95828.00;;;-1.55;76.94
61128;BME280;47013;42.664;23.242;2024-01-30T04:43:05;95823.63;;;-1.46;76.22
61128;BME280;47013;42.664;23.242;2024-01-30T04:45:31;95828.47;;;-1.48;75.48
61128;BME280;47013;42.664;23.242;2024-01-30T04:47:56;95827.88;;;-1.45;76.07
61128;BME280;47013;42.664;23.242;2024-01-30T04:50:23;95829.44;;;-1.39;76.88
61128;BME280;47013;42.664;23.242;2024-01-30T04:52:48;95843.84;;;-1.21;76.78
61128;BME280;47013;42.664;23.242;2024-01-30T04:55:14;95847.50;;;-1.12;76.07
61128;BME280;47013;42.664;23.242;2024-01-30T04:57:39;95846.91;;;-1.09;75.27
61128;BME280;47013;42.664;23.242;2024-01-30T05:00:05;95853.25;;;-1.05;74.84
61128;BME280;47013;42.664;23.242;2024-01-30T05:02:31;95849.28;;;-1.07;74.21
61128;BME280;47013;42.664;23.242;2024-01-30T05:04:56;95848.78;;;-1.09;74.78
61128;BME280;47013;42.664;23.242;2024-01-30T05:07:22;95853.53;;;-1.06;74.54
61128;BME280;47013;42.664;23.242;2024-01-30T05:09:47;95847.78;;;-1.13;74.92
61128;BME280;47013;42.664;23.242;2024-01-30T05:12:13;95855.88;;;-1.24;75.37
61128;BME280;47013;42.664;23.242;2024-01-30T05:14:39;95851.63;;;-1.25;75.58
61128;BME280;47013;42.664;23.242;2024-01-30T05:17:04;95855.41;;;-1.31;75.56
61128;BME280;47013;42.664;23.242;2024-01-30T05:19:30;95859.44;;;-1.33;76.65
61128;BME280;47013;42.664;23.242;2024-01-30T05:21:55;95860.19;;;-1.28;77.02
61128;BME280;47013;42.664;23.242;2024-01-30T05:24:20;95863.38;;;-1.31;76.37
61128;BME280;47013;42.664;23.242;2024-01-30T05:26:47;95865.22;;;-1.26;76.22
61128;BME280;47013;42.664;23.242;2024-01-30T05:29:13;95869.53;;;-1.30;76.93
61128;BME280;47013;42.664;23.242;2024-01-30T05:31:38;95860.97;;;-1.27;77.23
61128;BME280;47013;42.664;23.242;2024-01-30T05:34:04;95865.78;;;-1.29;77.91
61128;BME280;47013;42.664;23.242;2024-01-30T05:36:29;95863.34;;;-1.26;77.29
61128;BME280;47013;42.664;23.242;2024-01-30T05:38:56;95860.09;;;-1.23;76.85
61128;BME280;47013;42.664;23.242;2024-01-30T05:41:21;95863.38;;;-1.31;76.61
61128;BME280;47013;42.664;23.242;2024-01-30T05:43:47;95868.19;;;-1.33;76.99
61128;BME280;47013;42.664;23.242;2024-01-30T05:46:12;95862.44;;;-1.40;77.01
61128;BME280;47013;42.664;23.242;2024-01-30T05:48:38;95856.75;;;-1.33;76.74
61128;BME280;47013;42.664;23.242;2024-01-30T05:51:04;95864.47;;;-1.32;77.59
61128;BME280;47013;42.664;23.242;2024-01-30T05:53:29;95858.69;;;-1.39;77.19
61128;BME280;47013;42.664;23.242;2024-01-30T05:55:54;95859.59;;;-1.49;76.95
61128;BME280;47013;42.664;23.242;2024-01-30T05:58:20;95863.09;;;-1.53;77.23
61128;BME280;47013;42.664;23.242;2024-01-30T06:00:49;95857.03;;;-1.59;77.56
61128;BME280;47013;42.664;23.242;2024-01-30T06:03:14;95861.25;;;-1.58;77.51
61128;BME280;47013;42.664;23.242;2024-01-30T06:05:39;95845.38;;;-1.63;77.44
61128;BME280;47013;42.664;23.242;2024-01-30T06:08:05;95863.41;;;-1.60;76.95
61128;BME280;47013;42.664;23.242;2024-01-30T06:10:30;95858.59;;;-1.58;77.49
61128;BME280;47013;42.664;23.242;2024-01-30T06:12:56;95859.09;;;-1.51;77.21
61128;BME280;47013;42.664;23.242;2024-01-30T06:15:21;95856.94;;;-1.49;76.81
61128;BME280;47013;42.664;23.242;2024-01-30T06:17:47;95859.03;;;-1.45;76.62
61128;BME280;47013;42.664;23.242;2024-01-30T06:20:12;95857.00;;;-1.54;76.29
61128;BME280;47013;42.664;23.242;2024-01-30T06:22:37;95850.88;;;-1.54;76.07
61128;BME280;47013;42.664;23.242;2024-01-30T06:25:03;95859.66;;;-1.54;75.82
61128;BME280;47013;42.664;23.242;2024-01-30T06:27:28;95867.91;;;-1.55;75.55
61128;BME280;47013;42.664;23.242;2024-01-30T06:29:54;95859.16;;;-1.56;75.83
61128;BME280;47013;42.664;23.242;2024-01-30T06:32:19;95868.66;;;-1.50;75.36
61128;BME280;47013;42.664;23.242;2024-01-30T06:34:47;95872.09;;;-1.49;75.73
61128;BME280;47013;42.664;23.242;2024-01-30T06:37:13;95865.25;;;-1.55;76.32
61128;BME280;47013;42.664;23.242;2024-01-30T06:39:38;95869.03;;;-1.61;75.42
61128;BME280;47013;42.664;23.242;2024-01-30T06:42:04;95876.72;;;-1.60;75.64
61128;BME280;47013;42.664;23.242;2024-01-30T06:44:30;95863.41;;;-1.60;74.82
61128;BME280;47013;42.664;23.242;2024-01-30T06:46:55;95866.13;;;-1.65;74.67
61128;BME280;47013;42.664;23.242;2024-01-30T06:49:21;95859.53;;;-1.67;74.66
61128;BME280;47013;42.664;23.242;2024-01-30T06:51:47;95866.88;;;-1.59;74.88
61128;BME280;47013;42.664;23.242;2024-01-30T06:54:12;95867.38;;;-1.57;74.01
61128;BME280;47013;42.664;23.242;2024-01-30T06:56:38;95871.59;;;-1.51;72.99
61128;BME280;47013;42.664;23.242;2024-01-30T06:59:04;95872.03;;;-1.44;72.83
61128;BME280;47013;42.664;23.242;2024-01-30T07:01:30;95873.59;;;-1.38;72.97
61128;BME280;47013;42.664;23.242;2024-01-30T07:03:56;95875.91;;;-1.31;71.98
61128;BME280;47013;42.664;23.242;2024-01-30T07:06:21;95876.38;;;-1.24;72.22
61128;BME280;47013;42.664;23.242;2024-01-30T07:08:47;95879.81;;;-1.24;71.28
61128;BME280;47013;42.664;23.242;2024-01-30T07:11:19;95882.00;;;-1.31;72.79
61128;BME280;47013;42.664;23.242;2024-01-30T07:13:44;95882.19;;;-1.22;72.39
61128;BME280;47013;42.664;23.242;2024-01-30T07:16:10;95878.41;;;-1.16;70.97
61128;BME280;47013;42.664;23.242;2024-01-30T07:18:35;95882.88;;;-1.11;71.15
61128;BME280;47013;42.664;23.242;2024-01-30T07:21:00;95880.44;;;-1.08;70.43
61128;BME280;47013;42.664;23.242;2024-01-30T07:23:26;95883.06;;;-1.03;69.85
61128;BME280;47013;42.664;23.242;2024-01-30T07:25:52;95887.31;;;-1.02;69.08
61128;BME280;47013;42.664;23.242;2024-01-30T07:28:18;95885.97;;;-1.04;69.43
61128;BME280;47013;42.664;23.242;2024-01-30T07:30:43;95888.53;;;-0.94;69.69
61128;BME280;47013;42.664;23.242;2024-01-30T07:33:09;95887.97;;;-0.91;70.21
61128;BME280;47013;42.664;23.242;2024-01-30T07:35:35;95881.78;;;-0.86;68.73
61128;BME280;47013;42.664;23.242;2024-01-30T07:38:01;95881.16;;;-0.78;69.05
61128;BME280;47013;42.664;23.242;2024-01-30T07:40:26;95875.69;;;-0.68;68.23
61128;BME280;47013;42.664;23.242;2024-01-30T07:42:53;95881.06;;;-0.49;67.28
61128;BME280;47013;42.664;23.242;2024-01-30T07:45:19;95877.38;;;-0.35;66.79
61128;BME280;47013;42.664;23.242;2024-01-30T07:47:48;95882.00;;;-0.21;66.67
61128;BME280;47013;42.664;23.242;2024-01-30T07:50:14;95874.50;;;-0.19;65.62
61128;BME280;47013;42.664;23.242;2024-01-30T07:52:39;95864.41;;;-0.22;65.26
61128;BME280;47013;42.664;23.242;2024-01-30T07:55:05;95874.25;;;-0.04;66.01
61128;BME280;47013;42.664;23.242;2024-01-30T07:57:33;95874.63;;;-0.11;63.82
61128;BME280;47013;42.664;23.242;2024-01-30T07:59:59;95871.53;;;-0.18;64.48
61128;BME280;47013;42.664;23.242;2024-01-30T08:02:24;95872.38;;;0.62;100.00
61128;BME280;47013;42.664;23.242;2024-01-30T08:04:50;95875.28;;;0.93;75.10
61128;BME280;47013;42.664;23.242;2024-01-30T08:07:18;95870.44;;;1.22;63.21
61128;BME280;47013;42.664;23.242;2024-01-30T08:09:43;95861.59;;;1.35;60.73
61128;BME280;47013;42.664;23.242;2024-01-30T08:12:09;95862.41;;;1.72;59.64
61128;BME280;47013;42.664;23.242;2024-01-30T08:14:34;95869.50;;;2.13;58.38
61128;BME280;47013;42.664;23.242;2024-01-30T08:17:00;95868.81;;;2.29;56.77
61128;BME280;47013;42.664;23.242;2024-01-30T08:19:25;95870.94;;;2.41;55.36
61128;BME280;47013;42.664;23.242;2024-01-30T08:21:50;95863.53;;;3.00;100.00
61128;BME280;47013;42.664;23.242;2024-01-30T08:24:16;95864.03;;;3.11;61.43
61128;BME280;47013;42.664;23.242;2024-01-30T08:26:41;95868.50;;;2.84;54.64
61128;BME280;47013;42.664;23.242;2024-01-30T08:29:07;95870.91;;;2.94;54.90
61128;BME280;47013;42.664;23.242;2024-01-30T08:31:32;95872.28;;;2.83;53.10
61128;BME280;47013;42.664;23.242;2024-01-30T08:33:57;95869.06;;;3.04;53.29
61128;BME280;47013;42.664;23.242;2024-01-30T08:36:25;95868.91;;;3.09;51.82
61128;BME280;47013;42.664;23.242;2024-01-30T08:38:50;95860.75;;;3.14;49.67
61128;BME280;47013;42.664;23.242;2024-01-30T08:41:16;95870.47;;;3.10;51.58
61128;BME280;47013;42.664;23.242;2024-01-30T08:43:41;95874.22;;;3.40;50.21
61128;BME280;47013;42.664;23.242;2024-01-30T08:46:07;95876.00;;;3.53;49.54
61128;BME280;47013;42.664;23.242;2024-01-30T08:48:32;95877.19;;;3.30;48.69
61128;BME280;47013;42.664;23.242;2024-01-30T08:50:57;95882.88;;;2.88;49.87
61128;BME280;47013;42.664;23.242;2024-01-30T08:53:23;95873.63;;;2.72;51.17
61128;BME280;47013;42.664;23.242;2024-01-30T08:55:48;95872.38;;;2.47;50.68
61128;BME280;47013;42.664;23.242;2024-01-30T08:58:13;95885.19;;;2.50;52.07
61128;BME280;47013;42.664;23.242;2024-01-30T09:00:40;95877.78;;;2.25;52.42
61128;BME280;47013;42.664;23.242;2024-01-30T09:03:06;95882.94;;;1.99;52.80
61128;BME280;47013;42.664;23.242;2024-01-30T09:05:31;95885.31;;;2.23;53.77
61128;BME280;47013;42.664;23.242;2024-01-30T09:07:57;95883.78;;;2.08;53.98
61128;BME280;47013;42.664;23.242;2024-01-30T09:10:22;95881.72;;;1.69;54.70
61128;BME280;47013;42.664;23.242;2024-01-30T09:12:48;95882.09;;;1.76;55.20
61128;BME280;47013;42.664;23.242;2024-01-30T09:15:14;95877.03;;;1.88;55.01
61128;BME280;47013;42.664;23.242;2024-01-30T09:17:39;95878.00;;;1.92;54.35
61128;BME280;47013;42.664;23.242;2024-01-30T09:20:05;95875.94;;;1.89;53.30
61128;BME280;47013;42.664;23.242;2024-01-30T09:22:31;95873.22;;;1.67;54.93
61128;BME280;47013;42.664;23.242;2024-01-30T09:24:57;95880.75;;;1.65;56.83
61128;BME280;47013;42.664;23.242;2024-01-30T09:27:22;95870.38;;;1.50;58.04
61128;BME280;47013;42.664;23.242;2024-01-30T09:29:48;95876.34;;;1.46;58.47
61128;BME280;47013;42.664;23.242;2024-01-30T09:32:13;95868.19;;;1.52;59.30
61128;BME280;47013;42.664;23.242;2024-01-30T09:34:38;95871.59;;;1.43;59.40
61128;BME280;47013;42.664;23.242;2024-01-30T09:37:04;95868.75;;;1.12;59.63
61128;BME280;47013;42.664;23.242;2024-01-30T09:39:30;95873.78;;;1.00;60.38
61128;BME280;47013;42.664;23.242;2024-01-30T09:44:35;95858.66;;;0.82;61.12
61128;BME280;47013;42.664;23.242;2024-01-30T09:47:01;95865.38;;;0.79;61.23
61128;BME280;47013;42.664;23.242;2024-01-30T09:49:31;95854.72;;;0.93;61.30
61128;BME280;47013;42.664;23.242;2024-01-30T09:51:57;95861.50;;;1.13;59.93
61128;BME280;47013;42.664;23.242;2024-01-30T09:54:23;95861.44;;;1.04;59.44
61128;BME280;47013;42.664;23.242;2024-01-30T09:56:48;95859.16;;;0.98;59.71
61128;BME280;47013;42.664;23.242;2024-01-30T09:59:14;95857.56;;;1.10;59.32
61128;BME280;47013;42.664;23.242;2024-01-30T10:01:39;95858.75;;;0.91;59.16
61128;BME280;47013;42.664;23.242;2024-01-30T10:04:05;95860.06;;;0.93;58.75
61128;BME280;47013;42.664;23.242;2024-01-30T10:06:32;95857.44;;;0.74;60.38
61128;BME280;47013;42.664;23.242;2024-01-30T10:08:57;95857.84;;;0.68;61.00
61128;BME280;47013;42.664;23.242;2024-01-30T10:11:22;95855.50;;;0.94;69.55
61128;BME280;47013;42.664;23.242;2024-01-30T10:13:49;95845.59;;;1.08;62.75
61128;BME280;47013;42.664;23.242;2024-01-30T10:16:14;95839.13;;;1.36;60.43
61128;BME280;47013;42.664;23.242;2024-01-30T10:18:42;95842.19;;;1.43;58.97
61128;BME280;47013;42.664;23.242;2024-01-30T10:21:08;95834.84;;;1.49;58.93
61128;BME280;47013;42.664;23.242;2024-01-30T10:23:33;95833.56;;;1.46;58.35
61128;BME280;47013;42.664;23.242;2024-01-30T10:25:59;95834.41;;;1.92;56.73
61128;BME280;47013;42.664;23.242;2024-01-30T10:28:27;95849.50;;;2.10;56.67
61128;BME280;47013;42.664;23.242;2024-01-30T10:30:58;95846.75;;;2.24;55.94
61128;BME280;47013;42.664;23.242;2024-01-30T10:33:31;95837.63;;;2.02;55.07
61128;BME280;47013;42.664;23.242;2024-01-30T10:36:02;95841.38;;;1.79;55.69
61128;BME280;47013;42.664;23.242;2024-01-30T10:38:31;95841.28;;;1.84;55.76
61128;BME280;47013;42.664;23.242;2024-01-30T10:40:58;95840.28;;;1.80;55.81
61128;BME280;47013;42.664;23.242;2024-01-30T10:43:30;95838.00;;;1.87;56.51
61128;BME280;47013;42.664;23.242;2024-01-30T10:46:01;95838.41;;;2.03;56.66
61128;BME280;47013;42.664;23.242;2024-01-30T10:48:32;95840.63;;;2.01;54.67
61128;BME280;47013;42.664;23.242;2024-01-30T10:51:02;95835.25;;;2.23;55.45
61128;BME280;47013;42.664;23.242;2024-01-30T10:53:30;95834.31;;;1.97;54.79
61128;BME280;47013;42.664;23.242;2024-01-30T10:55:56;95832.34;;;1.89;55.46
61128;BME280;47013;42.664;23.242;2024-01-30T10:58:23;95827.59;;;1.86;55.51
61128;BME280;47013;42.664;23.242;2024-01-30T11:00:49;95815.34;;;2.38;66.95
61128;BME280;47013;42.664;23.242;2024-01-30T11:03:16;95808.28;;;2.11;60.20
61128;BME280;47013;42.664;23.242;2024-01-30T11:05:42;95809.00;;;2.03;59.57
61128;BME280;47013;42.664;23.242;2024-01-30T11:08:14;95805.84;;;2.01;60.81
61128;BME280;47013;42.664;23.242;2024-01-30T11:10:49;95809.78;;;2.03;59.58
61128;BME280;47013;42.664;23.242;2024-01-30T11:13:15;95807.31;;;2.38;58.87
61128;BME280;47013;42.664;23.242;2024-01-30T11:15:41;95804.19;;;2.45;58.20
61128;BME280;47013;42.664;23.242;2024-01-30T11:18:06;95797.72;;;2.37;58.09
61128;BME280;47013;42.664;23.242;2024-01-30T11:20:32;95800.25;;;2.11;58.19
61128;BME280;47013;42.664;23.242;2024-01-30T11:22:59;95804.91;;;2.28;57.84
61128;BME280;47013;42.664;23.242;2024-01-30T11:25:27;95800.84;;;2.70;56.99
61128;BME280;47013;42.664;23.242;2024-01-30T11:27:54;95801.13;;;2.29;57.47
61128;BME280;47013;42.664;23.242;2024-01-30T11:30:27;95807.00;;;2.09;58.75
61128;BME280;47013;42.664;23.242;2024-01-30T11:33:05;95805.19;;;1.95;59.10
61128;BME280;47013;42.664;23.242;2024-01-30T11:35:44;95804.91;;;1.61;61.35
61128;BME280;47013;42.664;23.242;2024-01-30T11:38:14;95802.66;;;1.76;61.33
61128;BME280;47013;42.664;23.242;2024-01-30T11:40:40;95799.88;;;2.04;60.61
61128;BME280;47013;42.664;23.242;2024-01-30T11:43:07;95807.31;;;1.85;59.50
61128;BME280;47013;42.664;23.242;2024-01-30T11:45:33;95811.72;;;1.67;61.02
61128;BME280;47013;42.664;23.242;2024-01-30T11:48:00;95806.41;;;1.53;61.81
61128;BME280;47013;42.664;23.242;2024-01-30T11:50:26;95801.06;;;1.53;61.70
61128;BME280;47013;42.664;23.242;2024-01-30T11:52:54;95805.00;;;1.69;60.91
61128;BME280;47013;42.664;23.242;2024-01-30T11:55:19;95800.22;;;1.66;60.79
61128;BME280;47013;42.664;23.242;2024-01-30T11:57:45;95795.94;;;2.32;59.61
61128;BME280;47013;42.664;23.242;2024-01-30T12:00:17;95792.56;;;2.89;58.24
61128;BME280;47013;42.664;23.242;2024-01-30T12:02:55;95778.16;;;3.59;55.37
61128;BME280;47013;42.664;23.242;2024-01-30T12:05:27;95777.03;;;3.51;55.35
61128;BME280;47013;42.664;23.242;2024-01-30T12:07:53;95780.38;;;3.92;53.65
61128;BME280;47013;42.664;23.242;2024-01-30T12:10:19;95759.41;;;4.40;51.73
61128;BME280;47013;42.664;23.242;2024-01-30T12:12:49;95762.84;;;4.88;48.86
61128;BME280;47013;42.664;23.242;2024-01-30T12:15:15;95754.94;;;4.91;48.19
61128;BME280;47013;42.664;23.242;2024-01-30T12:17:41;95762.00;;;5.25;47.83
61128;BME280;47013;42.664;23.242;2024-01-30T12:22:45;95745.34;;;5.32;47.03
61128;BME280;47013;42.664;23.242;2024-01-30T12:25:21;95749.69;;;5.45;46.77
61128;BME280;47013;42.664;23.242;2024-01-30T12:27:49;95745.50;;;5.36;47.04
61128;BME280;47013;42.664;23.242;2024-01-30T12:30:16;95753.53;;;5.15;47.18
61128;BME280;47013;42.664;23.242;2024-01-30T12:32:45;95744.25;;;4.83;47.42
61128;BME280;47013;42.664;23.242;2024-01-30T12:35:12;95746.41;;;4.51;48.41
61128;BME280;47013;42.664;23.242;2024-01-30T12:37:39;95744.47;;;4.69;48.17
61128;BME280;47013;42.664;23.242;2024-01-30T12:40:05;95740.03;;;4.26;49.30
61128;BME280;47013;42.664;23.242;2024-01-30T12:42:31;95740.91;;;3.92;49.84
61128;BME280;47013;42.664;23.242;2024-01-30T12:44:59;95741.72;;;3.67;51.11
61128;BME280;47013;42.664;23.242;2024-01-30T12:47:25;95738.88;;;3.72;50.81
61128;BME280;47013;42.664;23.242;2024-01-30T12:49:51;95737.13;;;3.50;51.13
61128;BME280;47013;42.664;23.242;2024-01-30T12:52:20;95734.63;;;3.36;52.29
61128;BME280;47013;42.664;23.242;2024-01-30T12:54:47;95730.03;;;3.11;51.75